PWSweather.com
Personal Weather Stations
Station Observations
PWSLORIS
The Farm At Fox Bay, Loris, SC 29569

The Farm At Fox BayLoris, SC 29569

Lat: 34.067097, Lon: -78.86907

Elevation: 108

Station Type: Davis Vantage Pro2 with 24 hr. FARS and solar

http://www.lorisweather.com

High Low Average
Temperature 90.9°F32.7°C 72.6°F22.6°C 81.2°F27.3°C
Dew Point 79.4°F26.3°C 72.0°F22.2°C 76.6°F24.8°C
Winds 5.8 mph 9.3 kmh Calm Calm 1.0 mph SSW1.6 kmh SSW
Wind Gusts 9.2 mph14.8 kmh -- 2.0 mph3.2 kmh
Humidity 99% 65% 87%
Pressure 29.92 in1013.2 mb 29.72 in1006.4 mb -
Precipitation 0.01 in0.3 mm - -
Hour Temp Dew Point Humidity Winds Wind Gusts Pressure Precip Precip Rate Daily Precip Total
12:00 AM 75.5°F24.2°C 74.3°F23.5°C 96% Calm Calm -- 29.92 in1013.2 mb - 0.00 in0.0 mm 0.00 in0.0 mm
12:15 AM 75.1°F23.9°C 73.9°F23.3°C 96% Calm Calm -- 29.92 in1013.2 mb - 0.00 in0.0 mm 0.00 in0.0 mm
12:30 AM 75.0°F23.9°C 74.1°F23.4°C 97% Calm Calm -- 29.92 in1013.2 mb - 0.00 in0.0 mm 0.00 in0.0 mm
12:45 AM 75.2°F24.0°C 74.2°F23.4°C 97% Calm Calm -- 29.91 in1012.9 mb - 0.00 in0.0 mm 0.00 in0.0 mm
01:00 AM 74.8°F23.8°C 73.9°F23.3°C 97% Calm Calm -- 29.91 in1012.9 mb - 0.00 in0.0 mm 0.00 in0.0 mm
01:15 AM 74.6°F23.7°C 73.7°F23.2°C 97% Calm Calm -- 29.91 in1012.9 mb - 0.00 in0.0 mm 0.00 in0.0 mm
01:30 AM 74.5°F23.6°C 73.6°F23.1°C 97% Calm Calm -- 29.90 in1012.5 mb - 0.00 in0.0 mm 0.00 in0.0 mm
01:45 AM 74.5°F23.6°C 73.6°F23.1°C 97% Calm Calm -- 29.90 in1012.5 mb - 0.00 in0.0 mm 0.00 in0.0 mm
02:00 AM 74.5°F23.6°C 73.6°F23.1°C 97% Calm Calm -- 29.89 in1012.2 mb - 0.00 in0.0 mm 0.00 in0.0 mm
02:15 AM 74.6°F23.7°C 74.0°F23.3°C 98% Calm Calm -- 29.89 in1012.2 mb - 0.00 in0.0 mm 0.00 in0.0 mm
02:30 AM 74.3°F23.5°C 73.4°F23.0°C 97% Calm Calm -- 29.89 in1012.2 mb - 0.00 in0.0 mm 0.00 in0.0 mm
02:45 AM 74.2°F23.4°C 73.6°F23.1°C 98% Calm Calm -- 29.89 in1012.2 mb - 0.00 in0.0 mm 0.00 in0.0 mm
03:00 AM 74.1°F23.4°C 73.5°F23.1°C 98% Calm Calm -- 29.89 in1012.2 mb - 0.00 in0.0 mm 0.00 in0.0 mm
03:15 AM 74.0°F23.3°C 73.4°F23.0°C 98% Calm Calm -- 29.89 in1012.2 mb - 0.00 in0.0 mm 0.00 in0.0 mm
03:30 AM 73.9°F23.3°C 73.3°F22.9°C 98% Calm Calm -- 29.88 in1011.9 mb - 0.00 in0.0 mm 0.00 in0.0 mm
03:45 AM 73.7°F23.2°C 73.1°F22.8°C 98% Calm Calm -- 29.89 in1012.2 mb - 0.00 in0.0 mm 0.00 in0.0 mm
04:00 AM 73.5°F23.1°C 72.9°F22.7°C 98% Calm Calm -- 29.89 in1012.2 mb - 0.00 in0.0 mm 0.00 in0.0 mm
04:15 AM 73.4°F23.0°C 72.8°F22.7°C 98% Calm Calm -- 29.89 in1012.2 mb - 0.00 in0.0 mm 0.00 in0.0 mm
04:30 AM 73.4°F23.0°C 72.8°F22.7°C 98% Calm Calm -- 29.88 in1011.9 mb - 0.00 in0.0 mm 0.00 in0.0 mm
04:45 AM 73.1°F22.8°C 72.5°F22.5°C 98% Calm Calm -- 29.89 in1012.2 mb - 0.00 in0.0 mm 0.00 in0.0 mm
05:00 AM 73.0°F22.8°C 72.4°F22.4°C 98% Calm Calm -- 29.89 in1012.2 mb - 0.00 in0.0 mm 0.00 in0.0 mm
05:15 AM 72.7°F22.6°C 72.1°F22.3°C 98% Calm Calm -- 29.89 in1012.2 mb - 0.00 in0.0 mm 0.00 in0.0 mm
05:30 AM 72.6°F22.6°C 72.0°F22.2°C 98% Calm Calm -- 29.89 in1012.2 mb - 0.00 in0.0 mm 0.00 in0.0 mm
05:45 AM 72.6°F22.6°C 72.0°F22.2°C 98% Calm Calm -- 29.89 in1012.2 mb - 0.00 in0.0 mm 0.00 in0.0 mm
06:00 AM 72.8°F22.7°C 72.2°F22.3°C 98% Calm Calm -- 29.89 in1012.2 mb - 0.00 in0.0 mm 0.00 in0.0 mm
06:15 AM 73.1°F22.8°C 72.8°F22.7°C 99% Calm Calm -- 29.90 in1012.5 mb - 0.00 in0.0 mm 0.00 in0.0 mm
06:30 AM 73.8°F23.2°C 73.5°F23.1°C 99% Calm Calm -- 29.90 in1012.5 mb - 0.00 in0.0 mm 0.00 in0.0 mm
06:45 AM 74.5°F23.6°C 74.2°F23.4°C 99% Calm Calm -- 29.90 in1012.5 mb - 0.00 in0.0 mm 0.00 in0.0 mm
07:00 AM 75.4°F24.1°C 75.1°F23.9°C 99% Calm Calm -- 29.90 in1012.5 mb - 0.00 in0.0 mm 0.00 in0.0 mm
07:15 AM 76.0°F24.4°C 75.7°F24.3°C 99% Calm Calm -- 29.90 in1012.5 mb - 0.00 in0.0 mm 0.00 in0.0 mm
07:30 AM 77.1°F25.1°C 76.8°F24.9°C 99% Calm Calm -- 29.89 in1012.2 mb - 0.00 in0.0 mm 0.00 in0.0 mm
07:45 AM 78.4°F25.8°C 77.8°F25.4°C 98% Calm Calm -- 29.88 in1011.9 mb - 0.00 in0.0 mm 0.00 in0.0 mm
08:00 AM 80.1°F26.7°C 78.9°F26.1°C 96% Calm Calm 3.5 mph5.6 kmh 29.88 in1011.9 mb - 0.00 in0.0 mm 0.00 in0.0 mm
08:15 AM 80.3°F26.8°C 77.8°F25.4°C 92% Calm Calm -- 29.88 in1011.9 mb - 0.00 in0.0 mm 0.00 in0.0 mm
08:30 AM 80.1°F26.7°C 77.9°F25.5°C 93% Calm Calm -- 29.88 in1011.9 mb - 0.00 in0.0 mm 0.00 in0.0 mm
08:45 AM 81.0°F27.2°C 78.1°F25.6°C 91% Calm Calm -- 29.88 in1011.9 mb - 0.00 in0.0 mm 0.00 in0.0 mm
09:00 AM 81.6°F27.6°C 78.0°F25.6°C 89% Calm Calm -- 29.88 in1011.9 mb - 0.00 in0.0 mm 0.00 in0.0 mm
09:15 AM 82.3°F27.9°C 78.4°F25.8°C 88% Calm Calm 3.5 mph5.6 kmh 29.88 in1011.9 mb - 0.00 in0.0 mm 0.00 in0.0 mm
09:30 AM 82.7°F28.2°C 78.1°F25.6°C 86% Calm Calm 3.5 mph5.6 kmh 29.88 in1011.9 mb - 0.00 in0.0 mm 0.00 in0.0 mm
09:45 AM 83.3°F28.5°C 78.7°F25.9°C 86% Calm Calm -- 29.87 in1011.5 mb - 0.00 in0.0 mm 0.00 in0.0 mm
10:00 AM 84.6°F29.2°C 78.1°F25.6°C 81% 2.3 mph S3.7 kmh S 3.5 mph5.6 kmh 29.86 in1011.2 mb - 0.00 in0.0 mm 0.00 in0.0 mm
10:15 AM 84.5°F29.2°C 78.0°F25.6°C 81% Calm Calm 1.2 mph1.9 kmh 29.86 in1011.2 mb - 0.00 in0.0 mm 0.00 in0.0 mm
10:30 AM 84.9°F29.4°C 78.0°F25.6°C 80% Calm Calm -- 29.86 in1011.2 mb - 0.00 in0.0 mm 0.00 in0.0 mm
10:45 AM 85.4°F29.7°C 78.5°F25.8°C 80% Calm Calm -- 29.86 in1011.2 mb - 0.00 in0.0 mm 0.00 in0.0 mm
11:00 AM 85.9°F29.9°C 78.2°F25.7°C 78% Calm Calm -- 29.86 in1011.2 mb - 0.00 in0.0 mm 0.00 in0.0 mm
11:15 AM 86.5°F30.3°C 78.4°F25.8°C 77% 3.5 mph SSE5.6 kmh SSE 4.6 mph7.4 kmh 29.85 in1010.8 mb - 0.00 in0.0 mm 0.00 in0.0 mm
11:30 AM 87.2°F30.7°C 78.7°F25.9°C 76% 2.3 mph S3.7 kmh S 3.5 mph5.6 kmh 29.84 in1010.5 mb - 0.00 in0.0 mm 0.00 in0.0 mm
11:45 AM 87.3°F30.7°C 78.8°F26.0°C 76% 2.3 mph SSW3.7 kmh SSW 3.5 mph5.6 kmh 29.83 in1010.2 mb - 0.00 in0.0 mm 0.00 in0.0 mm
12:00 PM 87.2°F30.7°C 79.1°F26.2°C 77% 1.2 mph W1.9 kmh W 2.3 mph3.7 kmh 29.84 in1010.5 mb - 0.00 in0.0 mm 0.00 in0.0 mm
12:15 PM 87.0°F30.6°C 78.5°F25.8°C 76% Calm Calm 4.6 mph7.4 kmh 29.83 in1010.2 mb - 0.00 in0.0 mm 0.00 in0.0 mm
12:30 PM 88.8°F31.6°C 78.6°F25.9°C 72% 1.2 mph NW1.9 kmh NW 2.3 mph3.7 kmh 29.83 in1010.2 mb - 0.00 in0.0 mm 0.00 in0.0 mm
12:45 PM 89.6°F32.0°C 79.4°F26.3°C 72% 1.2 mph SSE1.9 kmh SSE 1.2 mph1.9 kmh 29.82 in1009.8 mb - 0.00 in0.0 mm 0.00 in0.0 mm
01:00 PM 90.2°F32.3°C 79.1°F26.2°C 70% 1.2 mph NW1.9 kmh NW 2.3 mph3.7 kmh 29.82 in1009.8 mb - 0.00 in0.0 mm 0.00 in0.0 mm
01:15 PM 89.3°F31.8°C 78.2°F25.7°C 70% 2.3 mph NW3.7 kmh NW 6.9 mph11.1 kmh 29.81 in1009.5 mb - 0.00 in0.0 mm 0.00 in0.0 mm
01:30 PM 89.3°F31.8°C 77.8°F25.4°C 69% 2.3 mph W3.7 kmh W 3.5 mph5.6 kmh 29.81 in1009.5 mb - 0.00 in0.0 mm 0.00 in0.0 mm
01:45 PM 90.1°F32.3°C 79.0°F26.1°C 70% Calm Calm 2.3 mph3.7 kmh 29.80 in1009.1 mb - 0.00 in0.0 mm 0.00 in0.0 mm
02:00 PM 88.9°F31.6°C 77.8°F25.4°C 70% 3.5 mph S5.6 kmh S 4.6 mph7.4 kmh 29.80 in1009.1 mb - 0.00 in0.0 mm 0.00 in0.0 mm
02:15 PM 88.8°F31.6°C 79.0°F26.1°C 73% Calm Calm 5.8 mph9.3 kmh 29.79 in1008.8 mb - 0.00 in0.0 mm 0.00 in0.0 mm
02:30 PM 89.8°F32.1°C 77.8°F25.4°C 68% Calm Calm 1.2 mph1.9 kmh 29.78 in1008.5 mb - 0.00 in0.0 mm 0.00 in0.0 mm
02:45 PM 89.4°F31.9°C 79.2°F26.2°C 72% 1.2 mph S1.9 kmh S 5.8 mph9.3 kmh 29.77 in1008.1 mb - 0.00 in0.0 mm 0.00 in0.0 mm
03:00 PM 89.5°F31.9°C 78.4°F25.8°C 70% 1.2 mph S1.9 kmh S 3.5 mph5.6 kmh 29.77 in1008.1 mb - 0.00 in0.0 mm 0.00 in0.0 mm
03:15 PM 90.9°F32.7°C 78.4°F25.8°C 67% 2.3 mph NW3.7 kmh NW 2.3 mph3.7 kmh 29.77 in1008.1 mb - 0.00 in0.0 mm 0.00 in0.0 mm
03:30 PM 89.7°F32.1°C 77.3°F25.2°C 67% 3.5 mph S5.6 kmh S 9.2 mph14.8 kmh 29.77 in1008.1 mb - 0.00 in0.0 mm 0.00 in0.0 mm
03:45 PM 89.7°F32.1°C 77.3°F25.2°C 67% 3.5 mph S5.6 kmh S 5.8 mph9.3 kmh 29.76 in1007.8 mb - 0.00 in0.0 mm 0.00 in0.0 mm
04:00 PM 90.2°F32.3°C 76.8°F24.9°C 65% 3.5 mph S5.6 kmh S 5.8 mph9.3 kmh 29.76 in1007.8 mb - 0.00 in0.0 mm 0.00 in0.0 mm
04:15 PM 89.9°F32.2°C 77.5°F25.3°C 67% 5.8 mph S9.3 kmh S 8.1 mph13.0 kmh 29.75 in1007.5 mb - 0.00 in0.0 mm 0.00 in0.0 mm
04:30 PM 89.6°F32.0°C 77.7°F25.4°C 68% 3.5 mph S5.6 kmh S 3.5 mph5.6 kmh 29.75 in1007.5 mb - 0.00 in0.0 mm 0.00 in0.0 mm
04:45 PM 89.9°F32.2°C 78.8°F26.0°C 70% Calm Calm 1.2 mph1.9 kmh 29.75 in1007.5 mb - 0.00 in0.0 mm 0.00 in0.0 mm
05:00 PM 89.9°F32.2°C 78.3°F25.7°C 69% 2.3 mph S3.7 kmh S 5.8 mph9.3 kmh 29.75 in1007.5 mb - 0.00 in0.0 mm 0.00 in0.0 mm
05:15 PM 89.0°F31.7°C 78.0°F25.6°C 70% 2.3 mph SSW3.7 kmh SSW 3.5 mph5.6 kmh 29.74 in1007.1 mb - 0.00 in0.0 mm 0.00 in0.0 mm
05:30 PM 87.9°F31.1°C 78.6°F25.9°C 74% Calm Calm -- 29.74 in1007.1 mb - 0.00 in0.0 mm 0.00 in0.0 mm
05:45 PM 87.4°F30.8°C 78.5°F25.8°C 75% Calm Calm -- 29.74 in1007.1 mb - 0.00 in0.0 mm 0.00 in0.0 mm
06:00 PM 85.5°F29.7°C 79.0°F26.1°C 81% 1.2 mph S1.9 kmh S 5.8 mph9.3 kmh 29.74 in1007.1 mb - 0.00 in0.0 mm 0.00 in0.0 mm
06:15 PM 84.8°F29.3°C 79.1°F26.2°C 83% 3.5 mph S5.6 kmh S 6.9 mph11.1 kmh 29.75 in1007.5 mb - 0.00 in0.0 mm 0.00 in0.0 mm
06:30 PM 84.2°F29.0°C 79.2°F26.2°C 85% 2.3 mph S3.7 kmh S 3.5 mph5.6 kmh 29.74 in1007.1 mb - 0.00 in0.0 mm 0.00 in0.0 mm
06:45 PM 83.6°F28.7°C 79.0°F26.1°C 86% Calm Calm -- 29.74 in1007.1 mb - 0.00 in0.0 mm 0.00 in0.0 mm
07:00 PM 83.0°F28.3°C 78.7°F25.9°C 87% 3.5 mph S5.6 kmh S 3.5 mph5.6 kmh 29.74 in1007.1 mb - 0.00 in0.0 mm 0.00 in0.0 mm
07:15 PM 82.5°F28.1°C 78.2°F25.7°C 87% 2.3 mph S3.7 kmh S 3.5 mph5.6 kmh 29.74 in1007.1 mb - 0.00 in0.0 mm 0.00 in0.0 mm
07:30 PM 82.2°F27.9°C 78.6°F25.9°C 89% 2.3 mph S3.7 kmh S 4.6 mph7.4 kmh 29.74 in1007.1 mb - 0.00 in0.0 mm 0.00 in0.0 mm
07:45 PM 81.9°F27.7°C 78.7°F25.9°C 90% Calm Calm -- 29.74 in1007.1 mb - 0.00 in0.0 mm 0.00 in0.0 mm
08:00 PM 81.8°F27.7°C 78.9°F26.1°C 91% 1.2 mph S1.9 kmh S 2.3 mph3.7 kmh 29.75 in1007.5 mb - 0.00 in0.0 mm 0.00 in0.0 mm
08:15 PM 81.7°F27.6°C 78.8°F26.0°C 91% 1.2 mph S1.9 kmh S 3.5 mph5.6 kmh 29.75 in1007.5 mb - 0.00 in0.0 mm 0.00 in0.0 mm
08:30 PM 81.5°F27.5°C 79.0°F26.1°C 92% 1.2 mph S1.9 kmh S 3.5 mph5.6 kmh 29.74 in1007.1 mb - 0.00 in0.0 mm 0.00 in0.0 mm
08:45 PM 81.5°F27.5°C 79.3°F26.3°C 93% Calm Calm -- 29.73 in1006.8 mb - 0.00 in0.0 mm 0.00 in0.0 mm
09:00 PM 81.5°F27.5°C 79.3°F26.3°C 93% Calm Calm -- 29.74 in1007.1 mb - 0.00 in0.0 mm 0.00 in0.0 mm
09:15 PM 81.3°F27.4°C 79.1°F26.2°C 93% Calm Calm -- 29.74 in1007.1 mb - 0.00 in0.0 mm 0.00 in0.0 mm
09:30 PM 80.7°F27.1°C 77.8°F25.4°C 91% Calm Calm -- 29.74 in1007.1 mb - 0.01 in0.3 mm 0.01 in0.3 mm
09:45 PM 79.8°F26.6°C 76.6°F24.8°C 90% Calm Calm -- 29.74 in1007.1 mb - 0.00 in0.0 mm 0.01 in0.3 mm
10:00 PM 79.2°F26.2°C 76.0°F24.4°C 90% Calm Calm -- 29.74 in1007.1 mb - 0.00 in0.0 mm 0.01 in0.3 mm
10:15 PM 78.5°F25.8°C 75.7°F24.3°C 91% Calm Calm -- 29.73 in1006.8 mb - 0.00 in0.0 mm 0.01 in0.3 mm
10:30 PM 78.0°F25.6°C 75.5°F24.2°C 92% Calm Calm -- 29.73 in1006.8 mb - 0.00 in0.0 mm 0.01 in0.3 mm
10:45 PM 77.6°F25.3°C 75.4°F24.1°C 93% Calm Calm -- 29.73 in1006.8 mb - 0.00 in0.0 mm 0.01 in0.3 mm
11:00 PM 77.4°F25.2°C 75.5°F24.2°C 94% Calm Calm -- 29.72 in1006.4 mb - 0.00 in0.0 mm 0.01 in0.3 mm
11:15 PM 77.5°F25.3°C 76.0°F24.4°C 95% Calm Calm -- 29.72 in1006.4 mb - 0.01 in0.3 mm 0.01 in0.3 mm
11:30 PM 77.8°F25.4°C 76.6°F24.8°C 96% Calm Calm -- 29.72 in1006.4 mb - 0.00 in0.0 mm 0.01 in0.3 mm
11:45 PM 77.5°F25.3°C 76.2°F24.6°C 96% Calm Calm -- 29.72 in1006.4 mb - 0.00 in0.0 mm 0.01 in0.3 mm